sensor_id;sensor_type;location;lat;lon;timestamp;pressure;altitude;pressure_sealevel;temperature;humidity
6565;BME280;3316;44.118;27.258;2023-06-14T00:00:37;100791.53;;;18.56;100.00
6565;BME280;3316;44.118;27.258;2023-06-14T00:03:07;100800.44;;;18.55;100.00
6565;BME280;3316;44.118;27.258;2023-06-14T00:05:35;100799.84;;;18.48;100.00
6565;BME280;3316;44.118;27.258;2023-06-14T00:08:06;100808.44;;;18.55;100.00
6565;BME280;3316;44.118;27.258;2023-06-14T00:10:34;100795.47;;;18.46;100.00
6565;BME280;3316;44.118;27.258;2023-06-14T00:13:01;100797.91;;;18.52;100.00
6565;BME280;3316;44.118;27.258;2023-06-14T00:15:27;100739.81;;;18.17;100.00
6565;BME280;3316;44.118;27.258;2023-06-14T00:17:53;100794.75;;;18.42;100.00
6565;BME280;3316;44.118;27.258;2023-06-14T00:20:20;100805.34;;;18.44;100.00
6565;BME280;3316;44.118;27.258;2023-06-14T00:22:46;100816.94;;;18.43;100.00
6565;BME280;3316;44.118;27.258;2023-06-14T00:25:11;100801.91;;;18.40;100.00
6565;BME280;3316;44.118;27.258;2023-06-14T00:27:37;100810.88;;;18.38;100.00
6565;BME280;3316;44.118;27.258;2023-06-14T00:30:02;100801.41;;;18.31;100.00
6565;BME280;3316;44.118;27.258;2023-06-14T00:32:28;100817.38;;;18.54;100.00
6565;BME280;3316;44.118;27.258;2023-06-14T00:34:53;100811.97;;;18.55;100.00
6565;BME280;3316;44.118;27.258;2023-06-14T00:37:19;100803.41;;;18.47;100.00
6565;BME280;3316;44.118;27.258;2023-06-14T00:39:44;100778.28;;;18.31;100.00
6565;BME280;3316;44.118;27.258;2023-06-14T00:42:10;100799.63;;;18.30;100.00
6565;BME280;3316;44.118;27.258;2023-06-14T00:44:35;100798.03;;;18.26;100.00
6565;BME280;3316;44.118;27.258;2023-06-14T00:47:00;100794.50;;;18.25;100.00
6565;BME280;3316;44.118;27.258;2023-06-14T00:49:27;100790.00;;;18.27;100.00
6565;BME280;3316;44.118;27.258;2023-06-14T00:51:54;100791.34;;;18.37;100.00
6565;BME280;3316;44.118;27.258;2023-06-14T00:54:20;100787.13;;;18.32;100.00
6565;BME280;3316;44.118;27.258;2023-06-14T00:56:45;100784.59;;;18.29;100.00
6565;BME280;3316;44.118;27.258;2023-06-14T00:59:11;100792.44;;;18.33;100.00
6565;BME280;3316;44.118;27.258;2023-06-14T01:01:36;100780.97;;;18.31;100.00
6565;BME280;3316;44.118;27.258;2023-06-14T01:04:04;100789.88;;;18.30;100.00
6565;BME280;3316;44.118;27.258;2023-06-14T01:12:01;100781.53;;;18.16;100.00
6565;BME280;3316;44.118;27.258;2023-06-14T01:14:31;100779.09;;;18.10;100.00
6565;BME280;3316;44.118;27.258;2023-06-14T01:16:58;100779.81;;;18.15;100.00
6565;BME280;3316;44.118;27.258;2023-06-14T01:19:25;100772.38;;;18.02;100.00
6565;BME280;3316;44.118;27.258;2023-06-14T01:21:54;100775.69;;;18.07;100.00
6565;BME280;3316;44.118;27.258;2023-06-14T01:24:20;100765.63;;;18.15;100.00
6565;BME280;3316;44.118;27.258;2023-06-14T01:26:53;100771.47;;;18.01;100.00
6565;BME280;3316;44.118;27.258;2023-06-14T01:29:22;100767.03;;;18.02;100.00
6565;BME280;3316;44.118;27.258;2023-06-14T01:31:48;100775.09;;;18.00;100.00
6565;BME280;3316;44.118;27.258;2023-06-14T01:34:15;100768.66;;;18.06;100.00
6565;BME280;3316;44.118;27.258;2023-06-14T01:36:42;100763.44;;;18.03;100.00
6565;BME280;3316;44.118;27.258;2023-06-14T01:39:12;100747.09;;;17.90;100.00
6565;BME280;3316;44.118;27.258;2023-06-14T01:41:39;100732.22;;;17.85;100.00
6565;BME280;3316;44.118;27.258;2023-06-14T01:44:06;100768.81;;;18.01;100.00
6565;BME280;3316;44.118;27.258;2023-06-14T01:46:32;100777.69;;;18.02;100.00
6565;BME280;3316;44.118;27.258;2023-06-14T01:48:57;100749.41;;;17.76;100.00
6565;BME280;3316;44.118;27.258;2023-06-14T01:51:24;100778.25;;;17.87;100.00
6565;BME280;3316;44.118;27.258;2023-06-14T01:53:49;100771.13;;;17.87;100.00
6565;BME280;3316;44.118;27.258;2023-06-14T01:56:15;100778.09;;;17.91;100.00
6565;BME280;3316;44.118;27.258;2023-06-14T01:58:41;100785.78;;;17.99;100.00
6565;BME280;3316;44.118;27.258;2023-06-14T02:01:06;100781.56;;;17.93;100.00
6565;BME280;3316;44.118;27.258;2023-06-14T02:03:32;100772.31;;;17.80;100.00
6565;BME280;3316;44.118;27.258;2023-06-14T02:05:58;100783.06;;;17.77;100.00
6565;BME280;3316;44.118;27.258;2023-06-14T02:08:24;100738.91;;;17.48;100.00
6565;BME280;3316;44.118;27.258;2023-06-14T02:10:49;100782.81;;;17.60;100.00
6565;BME280;3316;44.118;27.258;2023-06-14T02:13:15;100787.09;;;17.64;100.00
6565;BME280;3316;44.118;27.258;2023-06-14T02:15:40;100725.38;;;17.30;100.00
6565;BME280;3316;44.118;27.258;2023-06-14T02:18:09;100793.38;;;17.63;100.00
6565;BME280;3316;44.118;27.258;2023-06-14T02:20:35;100784.66;;;17.58;100.00
6565;BME280;3316;44.118;27.258;2023-06-14T02:23:01;100788.94;;;17.62;100.00
6565;BME280;3316;44.118;27.258;2023-06-14T02:25:27;100792.31;;;17.67;100.00
6565;BME280;3316;44.118;27.258;2023-06-14T02:27:55;100799.22;;;17.72;100.00
6565;BME280;3316;44.118;27.258;2023-06-14T02:30:21;100790.22;;;17.75;100.00
6565;BME280;3316;44.118;27.258;2023-06-14T02:32:46;100803.28;;;17.83;100.00
6565;BME280;3316;44.118;27.258;2023-06-14T02:35:14;100812.91;;;17.85;100.00
6565;BME280;3316;44.118;27.258;2023-06-14T02:37:40;100804.03;;;17.86;100.00
6565;BME280;3316;44.118;27.258;2023-06-14T02:40:06;100819.81;;;17.91;100.00
6565;BME280;3316;44.118;27.258;2023-06-14T02:42:34;100822.31;;;17.95;100.00
6565;BME280;3316;44.118;27.258;2023-06-14T02:44:59;100813.28;;;17.99;100.00
6565;BME280;3316;44.118;27.258;2023-06-14T02:47:25;100822.66;;;18.09;100.00
6565;BME280;3316;44.118;27.258;2023-06-14T02:49:51;100793.81;;;17.97;100.00
6565;BME280;3316;44.118;27.258;2023-06-14T02:52:17;100813.72;;;18.10;100.00
6565;BME280;3316;44.118;27.258;2023-06-14T02:54:42;100820.63;;;18.39;100.00
6565;BME280;3316;44.118;27.258;2023-06-14T02:57:08;100816.06;;;18.42;100.00
6565;BME280;3316;44.118;27.258;2023-06-14T02:59:34;100814.38;;;18.61;100.00
6565;BME280;3316;44.118;27.258;2023-06-14T03:02:00;100803.31;;;18.72;100.00
6565;BME280;3316;44.118;27.258;2023-06-14T03:04:25;100810.91;;;18.81;100.00
6565;BME280;3316;44.118;27.258;2023-06-14T03:06:52;100815.94;;;18.89;100.00
6565;BME280;3316;44.118;27.258;2023-06-14T03:09:19;100827.16;;;18.97;100.00
6565;BME280;3316;44.118;27.258;2023-06-14T03:11:44;100827.38;;;19.12;100.00
6565;BME280;3316;44.118;27.258;2023-06-14T03:14:10;100834.69;;;19.29;100.00
6565;BME280;3316;44.118;27.258;2023-06-14T03:16:36;100826.16;;;19.41;100.00
6565;BME280;3316;44.118;27.258;2023-06-14T03:19:02;100828.69;;;19.64;100.00
6565;BME280;3316;44.118;27.258;2023-06-14T03:21:28;100837.47;;;19.86;100.00
6565;BME280;3316;44.118;27.258;2023-06-14T03:23:54;100837.75;;;20.19;100.00
6565;BME280;3316;44.118;27.258;2023-06-14T03:26:19;100839.50;;;20.57;100.00
6565;BME280;3316;44.118;27.258;2023-06-14T03:28:45;100846.69;;;20.74;100.00
6565;BME280;3316;44.118;27.258;2023-06-14T03:31:14;100851.63;;;20.64;100.00
6565;BME280;3316;44.118;27.258;2023-06-14T03:33:41;100852.56;;;20.99;100.00
6565;BME280;3316;44.118;27.258;2023-06-14T03:36:07;100860.00;;;21.30;100.00
6565;BME280;3316;44.118;27.258;2023-06-14T03:38:32;100858.88;;;21.51;100.00
6565;BME280;3316;44.118;27.258;2023-06-14T03:40:58;100862.56;;;21.48;100.00
6565;BME280;3316;44.118;27.258;2023-06-14T03:43:24;100864.31;;;21.32;100.00
6565;BME280;3316;44.118;27.258;2023-06-14T03:45:50;100868.56;;;21.70;100.00
6565;BME280;3316;44.118;27.258;2023-06-14T03:48:15;100868.03;;;21.98;100.00
6565;BME280;3316;44.118;27.258;2023-06-14T03:50:41;100866.19;;;22.31;100.00
6565;BME280;3316;44.118;27.258;2023-06-14T03:53:08;100866.44;;;22.42;100.00
6565;BME280;3316;44.118;27.258;2023-06-14T03:55:34;100861.63;;;22.49;100.00
6565;BME280;3316;44.118;27.258;2023-06-14T03:58:00;100868.56;;;22.53;100.00
6565;BME280;3316;44.118;27.258;2023-06-14T04:00:26;100851.75;;;22.49;100.00
6565;BME280;3316;44.118;27.258;2023-06-14T04:02:52;100875.25;;;22.77;100.00
6565;BME280;3316;44.118;27.258;2023-06-14T04:05:18;100873.88;;;22.85;100.00
6565;BME280;3316;44.118;27.258;2023-06-14T04:07:47;100873.44;;;22.62;100.00
6565;BME280;3316;44.118;27.258;2023-06-14T04:10:15;100844.91;;;22.28;100.00
6565;BME280;3316;44.118;27.258;2023-06-14T04:12:40;100869.31;;;22.55;100.00
6565;BME280;3316;44.118;27.258;2023-06-14T04:15:07;100874.56;;;22.73;100.00
6565;BME280;3316;44.118;27.258;2023-06-14T04:17:33;100883.53;;;22.72;100.00
6565;BME280;3316;44.118;27.258;2023-06-14T04:20:00;100878.94;;;22.59;100.00
6565;BME280;3316;44.118;27.258;2023-06-14T04:22:26;100882.31;;;22.14;100.00
6565;BME280;3316;44.118;27.258;2023-06-14T04:24:54;100833.53;;;21.41;100.00
6565;BME280;3316;44.118;27.258;2023-06-14T04:27:22;100865.66;;;21.58;100.00
6565;BME280;3316;44.118;27.258;2023-06-14T04:29:51;100855.91;;;21.57;100.00
6565;BME280;3316;44.118;27.258;2023-06-14T04:32:25;100873.06;;;21.53;100.00
6565;BME280;3316;44.118;27.258;2023-06-14T04:34:53;100880.44;;;21.48;100.00
6565;BME280;3316;44.118;27.258;2023-06-14T04:37:20;100889.34;;;21.65;100.00
6565;BME280;3316;44.118;27.258;2023-06-14T04:39:47;100891.19;;;21.82;100.00
6565;BME280;3316;44.118;27.258;2023-06-14T04:42:12;100874.53;;;21.92;100.00
6565;BME280;3316;44.118;27.258;2023-06-14T04:44:41;100885.25;;;21.92;100.00
6565;BME280;3316;44.118;27.258;2023-06-14T04:47:06;100893.44;;;22.06;100.00
6565;BME280;3316;44.118;27.258;2023-06-14T04:49:32;100895.13;;;22.25;100.00
6565;BME280;3316;44.118;27.258;2023-06-14T04:51:59;100894.16;;;22.26;100.00
6565;BME280;3316;44.118;27.258;2023-06-14T04:54:27;100902.94;;;22.29;100.00
6565;BME280;3316;44.118;27.258;2023-06-14T04:56:52;100901.56;;;22.38;100.00
6565;BME280;3316;44.118;27.258;2023-06-14T04:59:20;100894.06;;;22.44;100.00
6565;BME280;3316;44.118;27.258;2023-06-14T05:01:48;100886.16;;;22.41;100.00
6565;BME280;3316;44.118;27.258;2023-06-14T05:04:15;100909.31;;;22.59;100.00
6565;BME280;3316;44.118;27.258;2023-06-14T05:06:42;100879.66;;;22.62;100.00
6565;BME280;3316;44.118;27.258;2023-06-14T05:09:13;100915.38;;;23.10;100.00
6565;BME280;3316;44.118;27.258;2023-06-14T05:11:39;100916.09;;;23.13;100.00
6565;BME280;3316;44.118;27.258;2023-06-14T05:14:05;100916.88;;;23.31;100.00
6565;BME280;3316;44.118;27.258;2023-06-14T05:16:31;100908.19;;;23.41;100.00
6565;BME280;3316;44.118;27.258;2023-06-14T05:18:56;100914.19;;;23.60;100.00
6565;BME280;3316;44.118;27.258;2023-06-14T05:21:23;100918.63;;;23.61;100.00
6565;BME280;3316;44.118;27.258;2023-06-14T05:23:48;100912.13;;;23.65;100.00
6565;BME280;3316;44.118;27.258;2023-06-14T05:26:14;100913.94;;;23.65;100.00
6565;BME280;3316;44.118;27.258;2023-06-14T05:28:39;100913.88;;;23.80;100.00
6565;BME280;3316;44.118;27.258;2023-06-14T05:31:05;100912.44;;;24.05;100.00
6565;BME280;3316;44.118;27.258;2023-06-14T05:33:30;100913.69;;;24.27;100.00
6565;BME280;3316;44.118;27.258;2023-06-14T05:35:56;100911.56;;;24.04;99.89
6565;BME280;3316;44.118;27.258;2023-06-14T05:38:21;100896.47;;;23.58;100.00
6565;BME280;3316;44.118;27.258;2023-06-14T05:40:47;100906.13;;;23.60;100.00
6565;BME280;3316;44.118;27.258;2023-06-14T05:43:13;100915.06;;;23.61;100.00
6565;BME280;3316;44.118;27.258;2023-06-14T05:45:38;100911.59;;;23.88;100.00
6565;BME280;3316;44.118;27.258;2023-06-14T05:48:04;100914.44;;;23.71;100.00
6565;BME280;3316;44.118;27.258;2023-06-14T05:50:30;100917.78;;;23.45;100.00
6565;BME280;3316;44.118;27.258;2023-06-14T05:52:55;100923.25;;;23.28;100.00
6565;BME280;3316;44.118;27.258;2023-06-14T05:55:21;100930.81;;;23.37;100.00
6565;BME280;3316;44.118;27.258;2023-06-14T05:57:47;100928.22;;;23.95;100.00
6565;BME280;3316;44.118;27.258;2023-06-14T06:00:14;100925.88;;;24.05;100.00
6565;BME280;3316;44.118;27.258;2023-06-14T06:02:43;100886.06;;;23.81;100.00
6565;BME280;3316;44.118;27.258;2023-06-14T06:05:09;100925.47;;;24.25;100.00
6565;BME280;3316;44.118;27.258;2023-06-14T06:07:36;100920.28;;;24.50;97.17
6565;BME280;3316;44.118;27.258;2023-06-14T06:10:02;100928.09;;;24.83;96.15
6565;BME280;3316;44.118;27.258;2023-06-14T06:12:27;100930.59;;;25.12;94.50
6565;BME280;3316;44.118;27.258;2023-06-14T06:14:53;100935.13;;;25.38;91.47
6565;BME280;3316;44.118;27.258;2023-06-14T06:17:18;100934.81;;;25.57;89.44
6565;BME280;3316;44.118;27.258;2023-06-14T06:19:44;100927.19;;;24.96;92.90
6565;BME280;3316;44.118;27.258;2023-06-14T06:22:09;100934.41;;;24.67;95.31
6565;BME280;3316;44.118;27.258;2023-06-14T06:24:35;100946.06;;;24.40;96.26
6565;BME280;3316;44.118;27.258;2023-06-14T06:27:00;100934.38;;;23.97;99.38
6565;BME280;3316;44.118;27.258;2023-06-14T06:29:26;100930.97;;;23.79;100.00
6565;BME280;3316;44.118;27.258;2023-06-14T06:31:51;100939.72;;;24.41;98.63
6565;BME280;3316;44.118;27.258;2023-06-14T06:34:17;100921.66;;;24.43;96.05
6565;BME280;3316;44.118;27.258;2023-06-14T06:36:42;100882.44;;;24.25;96.15
6565;BME280;3316;44.118;27.258;2023-06-14T06:39:08;100936.53;;;24.62;96.29
6565;BME280;3316;44.118;27.258;2023-06-14T06:41:37;100912.81;;;24.41;95.81
6565;BME280;3316;44.118;27.258;2023-06-14T06:44:08;100932.78;;;24.65;94.53
6565;BME280;3316;44.118;27.258;2023-06-14T06:46:36;100931.19;;;24.77;94.28
6565;BME280;3316;44.118;27.258;2023-06-14T06:49:05;100916.63;;;24.79;94.11
6565;BME280;3316;44.118;27.258;2023-06-14T06:51:31;100918.72;;;25.02;92.86
6565;BME280;3316;44.118;27.258;2023-06-14T06:53:56;100925.41;;;25.36;91.26
6565;BME280;3316;44.118;27.258;2023-06-14T06:56:22;100917.00;;;25.54;88.87
6565;BME280;3316;44.118;27.258;2023-06-14T06:58:51;100919.84;;;25.66;84.53
6565;BME280;3316;44.118;27.258;2023-06-14T07:01:17;100926.69;;;25.84;83.75
6565;BME280;3316;44.118;27.258;2023-06-14T07:03:43;100919.09;;;26.15;83.58
6565;BME280;3316;44.118;27.258;2023-06-14T07:06:08;100926.19;;;26.41;80.82
6565;BME280;3316;44.118;27.258;2023-06-14T07:08:34;100932.44;;;26.42;79.64
6565;BME280;3316;44.118;27.258;2023-06-14T07:10:59;100934.56;;;26.87;76.91
6565;BME280;3316;44.118;27.258;2023-06-14T07:13:25;100923.22;;;26.95;74.21
6565;BME280;3316;44.118;27.258;2023-06-14T07:15:50;100923.97;;;26.97;73.29
6565;BME280;3316;44.118;27.258;2023-06-14T07:18:18;100927.19;;;27.38;69.62
6565;BME280;3316;44.118;27.258;2023-06-14T07:20:44;100927.34;;;27.11;69.18
6565;BME280;3316;44.118;27.258;2023-06-14T07:23:09;100916.75;;;26.85;70.17
6565;BME280;3316;44.118;27.258;2023-06-14T07:25:36;100917.75;;;26.33;71.42
6565;BME280;3316;44.118;27.258;2023-06-14T07:28:01;100923.41;;;26.30;74.40
6565;BME280;3316;44.118;27.258;2023-06-14T07:30:27;100929.44;;;26.34;73.92
6565;BME280;3316;44.118;27.258;2023-06-14T07:32:53;100933.16;;;25.94;75.47
6565;BME280;3316;44.118;27.258;2023-06-14T07:35:18;100928.22;;;26.25;77.30
6565;BME280;3316;44.118;27.258;2023-06-14T07:37:44;100927.66;;;26.83;73.13
6565;BME280;3316;44.118;27.258;2023-06-14T07:40:11;100925.94;;;26.70;71.89
6565;BME280;3316;44.118;27.258;2023-06-14T07:42:36;100930.38;;;26.71;71.77
6565;BME280;3316;44.118;27.258;2023-06-14T07:45:05;100925.84;;;27.07;69.91
6565;BME280;3316;44.118;27.258;2023-06-14T07:47:31;100930.34;;;27.19;67.98
6565;BME280;3316;44.118;27.258;2023-06-14T07:49:57;100924.19;;;27.54;66.04
6565;BME280;3316;44.118;27.258;2023-06-14T07:52:22;100922.16;;;27.45;65.99
6565;BME280;3316;44.118;27.258;2023-06-14T07:54:48;100921.53;;;27.76;65.00
6565;BME280;3316;44.118;27.258;2023-06-14T07:57:13;100932.47;;;27.74;62.71
6565;BME280;3316;44.118;27.258;2023-06-14T07:59:38;100936.81;;;27.88;63.55
6565;BME280;3316;44.118;27.258;2023-06-14T08:02:04;100924.78;;;27.92;61.54
6565;BME280;3316;44.118;27.258;2023-06-14T08:04:31;100914.78;;;27.47;65.00
6565;BME280;3316;44.118;27.258;2023-06-14T08:06:56;100926.69;;;27.20;65.56
6565;BME280;3316;44.118;27.258;2023-06-14T08:09:22;100934.88;;;27.55;65.00
6565;BME280;3316;44.118;27.258;2023-06-14T08:11:48;100937.31;;;27.58;63.06
6565;BME280;3316;44.118;27.258;2023-06-14T08:14:13;100934.31;;;27.74;63.21
6565;BME280;3316;44.118;27.258;2023-06-14T08:16:39;100949.84;;;27.83;63.87
6565;BME280;3316;44.118;27.258;2023-06-14T08:19:04;100927.75;;;27.89;63.10
6565;BME280;3316;44.118;27.258;2023-06-14T08:21:30;100929.97;;;27.60;64.52
6565;BME280;3316;44.118;27.258;2023-06-14T08:23:59;100943.97;;;27.89;63.24
6565;BME280;3316;44.118;27.258;2023-06-14T08:26:25;100940.13;;;27.80;64.36
6565;BME280;3316;44.118;27.258;2023-06-14T08:28:54;100945.34;;;27.60;65.13
6565;BME280;3316;44.118;27.258;2023-06-14T08:31:20;100946.53;;;27.32;65.95
6565;BME280;3316;44.118;27.258;2023-06-14T08:33:46;100942.06;;;27.07;67.40
6565;BME280;3316;44.118;27.258;2023-06-14T08:36:11;100936.56;;;27.09;67.00
6565;BME280;3316;44.118;27.258;2023-06-14T08:38:38;100933.47;;;27.26;66.92
6565;BME280;3316;44.118;27.258;2023-06-14T08:41:05;100935.84;;;26.94;67.65
6565;BME280;3316;44.118;27.258;2023-06-14T08:43:33;100937.16;;;26.89;68.88
6565;BME280;3316;44.118;27.258;2023-06-14T08:46:03;100937.34;;;26.98;68.61
6565;BME280;3316;44.118;27.258;2023-06-14T08:48:30;100945.31;;;27.12;67.29
6565;BME280;3316;44.118;27.258;2023-06-14T08:50:59;100932.88;;;27.46;66.01
6565;BME280;3316;44.118;27.258;2023-06-14T08:53:32;100899.31;;;27.49;63.32
6565;BME280;3316;44.118;27.258;2023-06-14T08:56:02;100931.41;;;27.53;64.99
6565;BME280;3316;44.118;27.258;2023-06-14T08:58:33;100926.66;;;27.33;65.21
6565;BME280;3316;44.118;27.258;2023-06-14T09:01:03;100925.75;;;27.09;65.26
6565;BME280;3316;44.118;27.258;2023-06-14T09:03:30;100935.19;;;27.03;66.35
6565;BME280;3316;44.118;27.258;2023-06-14T09:05:58;100922.72;;;26.77;65.63
6565;BME280;3316;44.118;27.258;2023-06-14T09:08:25;100930.88;;;26.88;64.42
6565;BME280;3316;44.118;27.258;2023-06-14T09:10:51;100863.09;;;26.68;65.81
6565;BME280;3316;44.118;27.258;2023-06-14T09:13:17;100916.41;;;27.49;65.38
6565;BME280;3316;44.118;27.258;2023-06-14T09:15:43;100911.63;;;27.53;63.05
6565;BME280;3316;44.118;27.258;2023-06-14T09:18:08;100917.03;;;27.53;64.18
6565;BME280;3316;44.118;27.258;2023-06-14T09:20:34;100883.66;;;26.94;64.01
6565;BME280;3316;44.118;27.258;2023-06-14T09:23:00;100898.75;;;27.09;64.82
6565;BME280;3316;44.118;27.258;2023-06-14T09:25:26;100908.44;;;27.48;64.88
6565;BME280;3316;44.118;27.258;2023-06-14T09:27:52;100909.94;;;27.63;64.04
6565;BME280;3316;44.118;27.258;2023-06-14T09:30:20;100915.78;;;27.80;64.55
6565;BME280;3316;44.118;27.258;2023-06-14T09:32:46;100914.53;;;27.97;63.40
6565;BME280;3316;44.118;27.258;2023-06-14T09:35:11;100909.44;;;27.92;63.26
6565;BME280;3316;44.118;27.258;2023-06-14T09:37:37;100906.72;;;28.60;59.98
6565;BME280;3316;44.118;27.258;2023-06-14T09:40:05;100915.56;;;28.51;57.94
6565;BME280;3316;44.118;27.258;2023-06-14T09:42:32;100908.78;;;28.12;61.40
6565;BME280;3316;44.118;27.258;2023-06-14T09:45:01;100915.63;;;27.94;61.40
6565;BME280;3316;44.118;27.258;2023-06-14T09:47:27;100902.94;;;27.60;62.27
6565;BME280;3316;44.118;27.258;2023-06-14T09:49:52;100901.22;;;27.59;61.13
6565;BME280;3316;44.118;27.258;2023-06-14T09:52:22;100903.09;;;28.04;62.42
6565;BME280;3316;44.118;27.258;2023-06-14T09:54:52;100910.69;;;27.99;62.28
6565;BME280;3316;44.118;27.258;2023-06-14T09:57:23;100913.22;;;27.79;64.00
6565;BME280;3316;44.118;27.258;2023-06-14T09:59:54;100891.97;;;27.51;64.57
6565;BME280;3316;44.118;27.258;2023-06-14T10:05:09;100883.69;;;28.33;57.07
6565;BME280;3316;44.118;27.258;2023-06-14T10:07:56;100878.38;;;28.75;57.45
6565;BME280;3316;44.118;27.258;2023-06-14T10:10:24;100894.34;;;29.00;56.50
6565;BME280;3316;44.118;27.258;2023-06-14T10:12:49;100887.59;;;29.06;56.03
6565;BME280;3316;44.118;27.258;2023-06-14T10:18:17;100897.53;;;29.28;53.69
6565;BME280;3316;44.118;27.258;2023-06-14T10:21:02;100899.16;;;29.08;53.09
6565;BME280;3316;44.118;27.258;2023-06-14T10:23:31;100892.06;;;28.74;54.62
6565;BME280;3316;44.118;27.258;2023-06-14T10:25:58;100893.13;;;28.05;55.17
6565;BME280;3316;44.118;27.258;2023-06-14T10:28:25;100902.59;;;27.99;55.80
6565;BME280;3316;44.118;27.258;2023-06-14T10:31:17;100870.06;;;28.56;54.41
6565;BME280;3316;44.118;27.258;2023-06-14T10:33:56;100894.34;;;29.00;52.39
6565;BME280;3316;44.118;27.258;2023-06-14T10:39:15;100885.47;;;29.52;52.37
6565;BME280;3316;44.118;27.258;2023-06-14T10:41:41;100894.47;;;29.53;50.02
6565;BME280;3316;44.118;27.258;2023-06-14T10:46:40;100881.81;;;29.63;48.95
6565;BME280;3316;44.118;27.258;2023-06-14T10:49:05;100881.28;;;29.69;49.82
6565;BME280;3316;44.118;27.258;2023-06-14T10:51:42;100885.47;;;29.52;50.16
6565;BME280;3316;44.118;27.258;2023-06-14T10:54:20;100826.97;;;28.64;51.44
6565;BME280;3316;44.118;27.258;2023-06-14T10:56:50;100876.69;;;28.74;52.91
6565;BME280;3316;44.118;27.258;2023-06-14T10:59:16;100902.28;;;28.70;53.17
6565;BME280;3316;44.118;27.258;2023-06-14T11:12:47;100889.78;;;29.55;50.86
6565;BME280;3316;44.118;27.258;2023-06-14T11:15:16;100841.44;;;28.85;49.32
6565;BME280;3316;44.118;27.258;2023-06-14T11:17:53;100854.03;;;28.64;50.05
6565;BME280;3316;44.118;27.258;2023-06-14T11:20:19;100887.94;;;29.24;49.81
6565;BME280;3316;44.118;27.258;2023-06-14T11:22:45;100874.47;;;29.54;49.52
6565;BME280;3316;44.118;27.258;2023-06-14T11:25:11;100878.28;;;29.31;50.41
6565;BME280;3316;44.118;27.258;2023-06-14T11:27:37;100880.69;;;28.91;49.76
6565;BME280;3316;44.118;27.258;2023-06-14T11:30:06;100877.84;;;29.03;50.34
6565;BME280;3316;44.118;27.258;2023-06-14T11:32:32;100870.75;;;29.34;49.74
6565;BME280;3316;44.118;27.258;2023-06-14T11:34:58;100882.22;;;29.58;48.29
6565;BME280;3316;44.118;27.258;2023-06-14T11:37:29;100879.38;;;29.92;47.76
6565;BME280;3316;44.118;27.258;2023-06-14T11:39:59;100872.19;;;30.11;45.64
6565;BME280;3316;44.118;27.258;2023-06-14T11:42:28;100872.22;;;29.38;46.83
6565;BME280;3316;44.118;27.258;2023-06-14T11:44:54;100881.22;;;29.39;48.39
6565;BME280;3316;44.118;27.258;2023-06-14T11:47:20;100878.16;;;28.78;48.87
6565;BME280;3316;44.118;27.258;2023-06-14T11:49:46;100868.22;;;28.57;49.64
6565;BME280;3316;44.118;27.258;2023-06-14T11:52:12;100865.59;;;28.44;49.15
6565;BME280;3316;44.118;27.258;2023-06-14T11:54:38;100879.97;;;28.89;49.10
6565;BME280;3316;44.118;27.258;2023-06-14T11:57:06;100870.16;;;29.31;48.14
6565;BME280;3316;44.118;27.258;2023-06-14T11:59:38;100861.75;;;29.34;48.33
6565;BME280;3316;44.118;27.258;2023-06-14T12:02:04;100874.56;;;29.63;49.04
6565;BME280;3316;44.118;27.258;2023-06-14T12:04:29;100880.13;;;29.62;48.55
6565;BME280;3316;44.118;27.258;2023-06-14T12:06:55;100870.50;;;29.37;48.63
6565;BME280;3316;44.118;27.258;2023-06-14T12:09:23;100877.47;;;29.51;48.92
6565;BME280;3316;44.118;27.258;2023-06-14T12:11:49;100864.72;;;29.83;47.57
6565;BME280;3316;44.118;27.258;2023-06-14T12:14:15;100853.09;;;29.92;46.57
6565;BME280;3316;44.118;27.258;2023-06-14T12:16:42;100856.50;;;29.94;46.77
6565;BME280;3316;44.118;27.258;2023-06-14T12:19:17;100867.97;;;29.45;47.25
6565;BME280;3316;44.118;27.258;2023-06-14T12:21:45;100853.94;;;29.20;48.78
6565;BME280;3316;44.118;27.258;2023-06-14T12:24:14;100857.50;;;29.20;50.12
6565;BME280;3316;44.118;27.258;2023-06-14T12:26:40;100851.22;;;29.20;49.68
6565;BME280;3316;44.118;27.258;2023-06-14T12:29:07;100846.28;;;29.25;49.91
6565;BME280;3316;44.118;27.258;2023-06-14T12:31:32;100843.16;;;29.61;49.44
6565;BME280;3316;44.118;27.258;2023-06-14T12:33:58;100848.78;;;29.90;47.54
6565;BME280;3316;44.118;27.258;2023-06-14T12:36:24;100836.13;;;30.00;46.14
6565;BME280;3316;44.118;27.258;2023-06-14T12:38:51;100831.44;;;29.81;46.18
6565;BME280;3316;44.118;27.258;2023-06-14T12:41:21;100834.81;;;29.94;47.09
6565;BME280;3316;44.118;27.258;2023-06-14T12:43:48;100835.19;;;29.48;48.10
6565;BME280;3316;44.118;27.258;2023-06-14T12:46:13;100822.66;;;29.16;48.51
6565;BME280;3316;44.118;27.258;2023-06-14T12:48:39;100837.03;;;28.73;49.93
6565;BME280;3316;44.118;27.258;2023-06-14T12:51:04;100825.97;;;28.76;50.07
6565;BME280;3316;44.118;27.258;2023-06-14T12:53:30;100835.88;;;29.30;48.76
6565;BME280;3316;44.118;27.258;2023-06-14T12:55:55;100825.59;;;29.44;47.62
6565;BME280;3316;44.118;27.258;2023-06-14T12:58:21;100832.72;;;29.45;47.14
6565;BME280;3316;44.118;27.258;2023-06-14T13:00:47;100826.16;;;29.79;46.94
6565;BME280;3316;44.118;27.258;2023-06-14T13:03:12;100788.28;;;29.99;48.68
6565;BME280;3316;44.118;27.258;2023-06-14T13:05:37;100802.25;;;30.24;47.44
6565;BME280;3316;44.118;27.258;2023-06-14T13:08:07;100789.84;;;29.71;46.74
6565;BME280;3316;44.118;27.258;2023-06-14T13:10:34;100814.47;;;29.27;47.99
6565;BME280;3316;44.118;27.258;2023-06-14T13:12:59;100807.63;;;29.64;47.90
6565;BME280;3316;44.118;27.258;2023-06-14T13:15:25;100806.88;;;29.82;46.77
6565;BME280;3316;44.118;27.258;2023-06-14T13:17:52;100802.09;;;29.86;47.50
6565;BME280;3316;44.118;27.258;2023-06-14T13:20:17;100788.31;;;29.78;46.24